LOT6678 HEGN-EPKT
Flight info
| Callsign | LOT6678 |
|---|---|
| Flight time | 4h 12m |
| Altitude | 34000 |
| Route | BOTIX1B BOTIX V608 NABED T55 GINDI W8 LUBOS/N0465F360 W8 CVO A16 RASDA M855 TOMBI UA16 AYT UQ23 OSVEL UL619 MAKOL L619 ARGES DCT BADOR DCT REDSI/N0450F370 DCT MEBAN |
| Aircraft | B38M/M-SDE1FGHILORVWXY/HB1 |
Departure
| Time | 2026-04-27 20:02 |
|---|---|
| Airport | Hurghada International Airport (HEGN) |
Arrival
| Time | 2026-04-28 00:14 |
|---|---|
| Airport | Katowice Wojciech Korfanty International Airport (EPKT) |
| Time | Latitude | Longitude | Altitude | Speed | Heading |
|---|---|---|---|---|---|
| 2026-04-27 19:19 | 27.19056 | 33.80348 | 52 ft | 0 kts | 75° |
| 2026-04-27 19:22 | 27.19056 | 33.80347 | 52 ft | 0 kts | 75° |
| 2026-04-27 19:23 | 27.19055 | 33.80347 | 61 ft | 0 kts | 75° |
| 2026-04-27 19:49 | 27.19053 | 33.80334 | 60 ft | 4 kts | 79° |
| 2026-04-27 19:49 | 27.19050 | 33.80304 | 56 ft | 4 kts | 94° |
| 2026-04-27 19:49 | 27.19057 | 33.80277 | 52 ft | 4 kts | 130° |
| 2026-04-27 19:50 | 27.19068 | 33.80268 | 54 ft | 1 kts | 165° |
| 2026-04-27 19:53 | 27.19060 | 33.80271 | 54 ft | 5 kts | 165° |
| 2026-04-27 19:53 | 27.18992 | 33.80290 | 56 ft | 15 kts | 165° |
| 2026-04-27 19:54 | 27.18884 | 33.80322 | 60 ft | 17 kts | 165° |
| 2026-04-27 19:54 | 27.18769 | 33.80355 | 58 ft | 17 kts | 165° |
| 2026-04-27 19:54 | 27.18668 | 33.80385 | 54 ft | 12 kts | 170° |
| 2026-04-27 19:54 | 27.18614 | 33.80325 | 60 ft | 13 kts | 253° |
| 2026-04-27 19:55 | 27.18588 | 33.80225 | 59 ft | 14 kts | 255° |
| 2026-04-27 19:55 | 27.18563 | 33.80116 | 52 ft | 15 kts | 251° |
| 2026-04-27 19:55 | 27.18466 | 33.80091 | 52 ft | 17 kts | 164° |
| 2026-04-27 19:55 | 27.18340 | 33.80128 | 51 ft | 22 kts | 166° |
| 2026-04-27 19:56 | 27.18167 | 33.80180 | 53 ft | 28 kts | 165° |
| 2026-04-27 19:56 | 27.17988 | 33.80232 | 52 ft | 22 kts | 165° |
| 2026-04-27 19:56 | 27.17838 | 33.80276 | 54 ft | 23 kts | 165° |
| 2026-04-27 19:56 | 27.17683 | 33.80323 | 53 ft | 23 kts | 165° |
| 2026-04-27 19:57 | 27.17524 | 33.80369 | 52 ft | 24 kts | 164° |
| 2026-04-27 19:57 | 27.17423 | 33.80323 | 53 ft | 16 kts | 258° |
| 2026-04-27 19:57 | 27.17398 | 33.80207 | 53 ft | 14 kts | 252° |
| 2026-04-27 19:57 | 27.17369 | 33.80090 | 53 ft | 17 kts | 255° |
| 2026-04-27 19:58 | 27.17334 | 33.79941 | 60 ft | 23 kts | 255° |
| 2026-04-27 19:58 | 27.17288 | 33.79754 | 84 ft | 25 kts | 255° |
| 2026-04-27 19:58 | 27.17247 | 33.79578 | 100 ft | 20 kts | 255° |
| 2026-04-27 19:58 | 27.17180 | 33.79507 | 105 ft | 14 kts | 173° |
| 2026-04-27 19:59 | 27.17078 | 33.79536 | 108 ft | 19 kts | 165° |
| 2026-04-27 19:59 | 27.16982 | 33.79564 | 108 ft | 25 kts | 165° |
| 2026-04-27 19:59 | 27.16794 | 33.79620 | 107 ft | 29 kts | 165° |
| 2026-04-27 19:59 | 27.16598 | 33.79677 | 110 ft | 29 kts | 166° |
| 2026-04-27 20:00 | 27.16403 | 33.79735 | 113 ft | 29 kts | 165° |
| 2026-04-27 20:00 | 27.16215 | 33.79791 | 116 ft | 28 kts | 165° |
| 2026-04-27 20:00 | 27.16045 | 33.79841 | 117 ft | 19 kts | 165° |
| 2026-04-27 20:00 | 27.15939 | 33.79833 | 122 ft | 14 kts | 240° |
| 2026-04-27 20:01 | 27.15910 | 33.79727 | 123 ft | 10 kts | 258° |
| 2026-04-27 20:01 | 27.15911 | 33.79684 | 122 ft | 4 kts | 309° |
| 2026-04-27 20:01 | 27.15933 | 33.79677 | 118 ft | 8 kts | 347° |
| 2026-04-27 20:01 | 27.16169 | 33.79607 | 118 ft | 69 kts | 345° |
| 2026-04-27 20:02 | 27.16836 | 33.79410 | 113 ft | 127 kts | 345° |
| 2026-04-27 20:02 | 27.17858 | 33.79108 | 122 ft | 172 kts | 345° |
| 2026-04-27 20:02 | 27.19040 | 33.78775 | 748 ft | 176 kts | 344° |
| 2026-04-27 20:02 | 27.20241 | 33.78446 | 1468 ft | 182 kts | 344° |
| 2026-04-27 20:03 | 27.21525 | 33.78087 | 2086 ft | 198 kts | 342° |
| 2026-04-27 20:03 | 27.22919 | 33.77688 | 2706 ft | 214 kts | 344° |
| 2026-04-27 20:03 | 27.24428 | 33.77282 | 3277 ft | 233 kts | 345° |
| 2026-04-27 20:03 | 27.26052 | 33.76854 | 3925 ft | 243 kts | 345° |
| 2026-04-27 20:04 | 27.27706 | 33.76425 | 4854 ft | 246 kts | 346° |
| 2026-04-27 20:04 | 27.29392 | 33.75992 | 5659 ft | 251 kts | 346° |
| 2026-04-27 20:04 | 27.31058 | 33.75359 | 6453 ft | 256 kts | 329° |
| 2026-04-27 20:04 | 27.32317 | 33.73944 | 7232 ft | 263 kts | 302° |
| 2026-04-27 20:05 | 27.32901 | 33.71971 | 7766 ft | 273 kts | 278° |
| 2026-04-27 20:05 | 27.32648 | 33.69854 | 7896 ft | 279 kts | 254° |
| 2026-04-27 20:05 | 27.32003 | 33.67789 | 7949 ft | 281 kts | 255° |
| 2026-04-27 20:05 | 27.31380 | 33.65716 | 8646 ft | 277 kts | 255° |
| 2026-04-27 20:06 | 27.30763 | 33.63646 | 9428 ft | 282 kts | 255° |
| 2026-04-27 20:06 | 27.30138 | 33.61535 | 10153 ft | 286 kts | 255° |
| 2026-04-27 20:06 | 27.29493 | 33.59350 | 10531 ft | 304 kts | 255° |
| 2026-04-27 20:06 | 27.28806 | 33.57024 | 10781 ft | 323 kts | 254° |
| 2026-04-27 20:07 | 27.28081 | 33.54573 | 11144 ft | 337 kts | 254° |
| 2026-04-27 20:07 | 27.27336 | 33.52055 | 11756 ft | 340 kts | 254° |
| 2026-04-27 20:07 | 27.26587 | 33.49522 | 12437 ft | 343 kts | 254° |
| 2026-04-27 20:07 | 27.25833 | 33.46970 | 13087 ft | 345 kts | 254° |
| 2026-04-27 20:08 | 27.25077 | 33.44409 | 13735 ft | 347 kts | 254° |
| 2026-04-27 20:08 | 27.24322 | 33.41855 | 14277 ft | 350 kts | 254° |
| 2026-04-27 20:08 | 27.23545 | 33.39226 | 14852 ft | 352 kts | 254° |
| 2026-04-27 20:08 | 27.22770 | 33.36609 | 15380 ft | 354 kts | 254° |
| 2026-04-27 20:09 | 27.22062 | 33.33989 | 15885 ft | 355 kts | 262° |
| 2026-04-27 20:09 | 27.22005 | 33.31240 | 16424 ft | 353 kts | 276° |
| 2026-04-27 20:09 | 27.22186 | 33.28426 | 16860 ft | 359 kts | 275° |
| 2026-04-27 20:09 | 27.22380 | 33.25668 | 17440 ft | 359 kts | 276° |
| 2026-04-27 20:10 | 27.22593 | 33.22857 | 17873 ft | 362 kts | 276° |
| 2026-04-27 20:10 | 27.22816 | 33.20030 | 18337 ft | 364 kts | 276° |
| 2026-04-27 20:10 | 27.23046 | 33.17191 | 18781 ft | 365 kts | 276° |
| 2026-04-27 20:10 | 27.23277 | 33.14345 | 19206 ft | 367 kts | 276° |
| 2026-04-27 20:11 | 27.23510 | 33.11486 | 19630 ft | 368 kts | 277° |
| 2026-04-27 20:11 | 27.23743 | 33.08623 | 20067 ft | 369 kts | 277° |
| 2026-04-27 20:11 | 27.23977 | 33.05743 | 20496 ft | 370 kts | 277° |
| 2026-04-27 20:11 | 27.24211 | 33.02857 | 20945 ft | 372 kts | 277° |
| 2026-04-27 20:12 | 27.24445 | 32.99957 | 21348 ft | 373 kts | 277° |
| 2026-04-27 20:12 | 27.24680 | 32.97048 | 21783 ft | 375 kts | 277° |
| 2026-04-27 20:12 | 27.24915 | 32.94128 | 22218 ft | 376 kts | 277° |
| 2026-04-27 20:12 | 27.25150 | 32.91193 | 22658 ft | 377 kts | 277° |
| 2026-04-27 20:13 | 27.25385 | 32.88252 | 23102 ft | 379 kts | 277° |
| 2026-04-27 20:13 | 27.25621 | 32.85294 | 23543 ft | 381 kts | 277° |
| 2026-04-27 20:13 | 27.25857 | 32.82327 | 23922 ft | 382 kts | 277° |
| 2026-04-27 20:13 | 27.26093 | 32.79346 | 24312 ft | 384 kts | 277° |
| 2026-04-27 20:14 | 27.26330 | 32.76355 | 24701 ft | 385 kts | 277° |
| 2026-04-27 20:14 | 27.26566 | 32.73353 | 25088 ft | 387 kts | 277° |
| 2026-04-27 20:14 | 27.26804 | 32.70334 | 25466 ft | 388 kts | 277° |
| 2026-04-27 20:14 | 27.27041 | 32.67308 | 25838 ft | 390 kts | 277° |
| 2026-04-27 20:15 | 27.27279 | 32.64266 | 26190 ft | 392 kts | 277° |
| 2026-04-27 20:15 | 27.27518 | 32.61209 | 26549 ft | 393 kts | 277° |
| 2026-04-27 20:15 | 27.27757 | 32.58140 | 26889 ft | 395 kts | 277° |
| 2026-04-27 20:15 | 27.27996 | 32.55059 | 27230 ft | 397 kts | 277° |
| 2026-04-27 20:16 | 27.28235 | 32.51966 | 27565 ft | 398 kts | 276° |
| 2026-04-27 20:16 | 27.28476 | 32.48852 | 27883 ft | 400 kts | 276° |
| 2026-04-27 20:16 | 27.28715 | 32.45730 | 28219 ft | 402 kts | 276° |
| 2026-04-27 20:16 | 27.28956 | 32.42596 | 28534 ft | 404 kts | 276° |
| 2026-04-27 20:17 | 27.29197 | 32.39442 | 28851 ft | 406 kts | 276° |
| 2026-04-27 20:17 | 27.29439 | 32.36278 | 29163 ft | 408 kts | 276° |
| 2026-04-27 20:17 | 27.29681 | 32.33095 | 29471 ft | 409 kts | 276° |
| 2026-04-27 20:17 | 27.30110 | 32.29935 | 29751 ft | 410 kts | 287° |
| 2026-04-27 20:18 | 27.31306 | 32.27033 | 30062 ft | 413 kts | 301° |
| 2026-04-27 20:18 | 27.32987 | 32.24400 | 30343 ft | 414 kts | 303° |
| 2026-04-27 20:18 | 27.34699 | 32.21797 | 30644 ft | 414 kts | 304° |
| 2026-04-27 20:18 | 27.36433 | 32.19211 | 30997 ft | 413 kts | 304° |
| 2026-04-27 20:19 | 27.38173 | 32.16642 | 31347 ft | 413 kts | 304° |
| 2026-04-27 20:19 | 27.39919 | 32.14082 | 31681 ft | 412 kts | 304° |
| 2026-04-27 20:19 | 27.41663 | 32.11529 | 32017 ft | 411 kts | 304° |
| 2026-04-27 20:19 | 27.43403 | 32.08986 | 32347 ft | 410 kts | 304° |
| 2026-04-27 20:20 | 27.45144 | 32.06439 | 32677 ft | 409 kts | 303° |
| 2026-04-27 20:20 | 27.46876 | 32.03903 | 33002 ft | 408 kts | 303° |
| 2026-04-27 20:20 | 27.48607 | 32.01369 | 33322 ft | 408 kts | 303° |
| 2026-04-27 20:20 | 27.50334 | 31.98839 | 33641 ft | 407 kts | 303° |
| 2026-04-27 20:21 | 27.52056 | 31.96315 | 33944 ft | 407 kts | 303° |
| 2026-04-27 20:21 | 27.53757 | 31.93820 | 34035 ft | 407 kts | 303° |
| 2026-04-27 20:21 | 27.57191 | 31.88779 | 34032 ft | 404 kts | 303° |
| 2026-04-27 20:22 | 27.60615 | 31.83746 | 34042 ft | 405 kts | 303° |
| 2026-04-27 20:22 | 27.64040 | 31.78705 | 34047 ft | 405 kts | 303° |
| 2026-04-27 20:23 | 27.67462 | 31.73665 | 34052 ft | 405 kts | 303° |
| 2026-04-27 20:23 | 27.70883 | 31.68619 | 34052 ft | 405 kts | 303° |
| 2026-04-27 20:24 | 27.74324 | 31.63537 | 34061 ft | 405 kts | 303° |
| 2026-04-27 20:24 | 27.77718 | 31.58520 | 34055 ft | 405 kts | 303° |
| 2026-04-27 20:25 | 27.81131 | 31.53468 | 34056 ft | 405 kts | 303° |
| 2026-04-27 20:25 | 27.84541 | 31.48414 | 34055 ft | 405 kts | 303° |
| 2026-04-27 20:26 | 27.87952 | 31.43355 | 34053 ft | 405 kts | 303° |
| 2026-04-27 20:26 | 27.91361 | 31.38291 | 34055 ft | 405 kts | 303° |
| 2026-04-27 20:27 | 27.94769 | 31.33223 | 34050 ft | 405 kts | 303° |
| 2026-04-27 20:27 | 27.98176 | 31.28152 | 34050 ft | 405 kts | 303° |
| 2026-04-27 20:28 | 28.01581 | 31.23077 | 34048 ft | 405 kts | 303° |
| 2026-04-27 20:28 | 28.04513 | 31.18897 | 34031 ft | 408 kts | 312° |
| 2026-04-27 20:29 | 28.07670 | 31.16505 | 34049 ft | 422 kts | 331° |
| 2026-04-27 20:29 | 28.10542 | 31.15621 | 34038 ft | 437 kts | 346° |
| 2026-04-27 20:29 | 28.13631 | 31.15601 | 34052 ft | 451 kts | 358° |
| 2026-04-27 20:29 | 28.16762 | 31.15910 | 34031 ft | 452 kts | 357° |
| 2026-04-27 20:30 | 28.23029 | 31.16559 | 34047 ft | 452 kts | 358° |
| 2026-04-27 20:30 | 28.29296 | 31.17254 | 34048 ft | 452 kts | 358° |
| 2026-04-27 20:31 | 28.35549 | 31.17955 | 34046 ft | 451 kts | 358° |
| 2026-04-27 20:31 | 28.41794 | 31.18655 | 34046 ft | 451 kts | 358° |
| 2026-04-27 20:32 | 28.48035 | 31.19356 | 34041 ft | 450 kts | 358° |
| 2026-04-27 20:32 | 28.54273 | 31.20058 | 34042 ft | 450 kts | 358° |
| 2026-04-27 20:33 | 28.60501 | 31.20759 | 34045 ft | 450 kts | 358° |
| 2026-04-27 20:33 | 28.66720 | 31.21460 | 34043 ft | 449 kts | 358° |
| 2026-04-27 20:34 | 28.72935 | 31.22194 | 34037 ft | 449 kts | 358° |
| 2026-04-27 20:34 | 28.79149 | 31.22944 | 34045 ft | 449 kts | 358° |
| 2026-04-27 20:35 | 28.85353 | 31.23692 | 34036 ft | 448 kts | 358° |
| 2026-04-27 20:35 | 28.91548 | 31.24441 | 34026 ft | 448 kts | 359° |
| 2026-04-27 20:36 | 28.97743 | 31.25189 | 34038 ft | 448 kts | 359° |
| 2026-04-27 20:36 | 29.00847 | 31.25565 | 34157 ft | 448 kts | 359° |
| 2026-04-27 20:36 | 29.03952 | 31.25940 | 34411 ft | 448 kts | 358° |
| 2026-04-27 20:37 | 29.07047 | 31.26315 | 34616 ft | 449 kts | 358° |
| 2026-04-27 20:37 | 29.10157 | 31.26692 | 34826 ft | 449 kts | 358° |
| 2026-04-27 20:37 | 29.13267 | 31.27070 | 35044 ft | 449 kts | 358° |
| 2026-04-27 20:37 | 29.16377 | 31.27447 | 35243 ft | 450 kts | 358° |
| 2026-04-27 20:38 | 29.19489 | 31.27825 | 35460 ft | 450 kts | 358° |
| 2026-04-27 20:38 | 29.22597 | 31.28203 | 35657 ft | 450 kts | 358° |
| 2026-04-27 20:38 | 29.25710 | 31.28581 | 35847 ft | 450 kts | 358° |
| 2026-04-27 20:38 | 29.28822 | 31.28960 | 36014 ft | 450 kts | 358° |
| 2026-04-27 20:39 | 29.35013 | 31.29715 | 36024 ft | 449 kts | 358° |
| 2026-04-27 20:39 | 29.41220 | 31.30472 | 36031 ft | 449 kts | 358° |
| 2026-04-27 20:40 | 29.47432 | 31.31232 | 36029 ft | 449 kts | 358° |
| 2026-04-27 20:40 | 29.53649 | 31.31993 | 36027 ft | 449 kts | 358° |
| 2026-04-27 20:41 | 29.59855 | 31.32754 | 36026 ft | 449 kts | 358° |
| 2026-04-27 20:41 | 29.66072 | 31.33517 | 36026 ft | 449 kts | 358° |
| 2026-04-27 20:42 | 29.72281 | 31.34280 | 36027 ft | 449 kts | 358° |
| 2026-04-27 20:42 | 29.78482 | 31.35044 | 36027 ft | 448 kts | 359° |
| 2026-04-27 20:43 | 29.84687 | 31.35808 | 36033 ft | 448 kts | 359° |
| 2026-04-27 20:43 | 29.90886 | 31.36573 | 36041 ft | 448 kts | 359° |
| 2026-04-27 20:44 | 29.97076 | 31.37338 | 36046 ft | 448 kts | 359° |
| 2026-04-27 20:44 | 30.02224 | 31.37974 | 36051 ft | 447 kts | 359° |
| 2026-04-27 20:45 | 30.08419 | 31.38697 | 36044 ft | 443 kts | 353° |
| 2026-04-27 20:45 | 30.11423 | 31.38358 | 36058 ft | 430 kts | 343° |
| 2026-04-27 20:45 | 30.14395 | 31.37844 | 36042 ft | 434 kts | 345° |
| 2026-04-27 20:46 | 30.20363 | 31.36800 | 36049 ft | 433 kts | 345° |
| 2026-04-27 20:46 | 30.26316 | 31.35716 | 36044 ft | 433 kts | 344° |
| 2026-04-27 20:47 | 30.32272 | 31.34624 | 36038 ft | 433 kts | 344° |
| 2026-04-27 20:47 | 30.38218 | 31.33533 | 36034 ft | 433 kts | 345° |
| 2026-04-27 20:48 | 30.44175 | 31.32438 | 36028 ft | 433 kts | 345° |
| 2026-04-27 20:48 | 30.50124 | 31.31345 | 36019 ft | 433 kts | 345° |
| 2026-04-27 20:49 | 30.56072 | 31.30252 | 36025 ft | 433 kts | 345° |
| 2026-04-27 20:49 | 30.62025 | 31.29156 | 36024 ft | 433 kts | 345° |
| 2026-04-27 20:50 | 30.67979 | 31.28058 | 36026 ft | 433 kts | 345° |
| 2026-04-27 20:50 | 30.73887 | 31.26968 | 36024 ft | 433 kts | 345° |
| 2026-04-27 20:51 | 30.79868 | 31.25863 | 36023 ft | 433 kts | 345° |
| 2026-04-27 20:51 | 30.85778 | 31.24769 | 36028 ft | 433 kts | 345° |
| 2026-04-27 20:52 | 30.91728 | 31.23667 | 36028 ft | 433 kts | 345° |
| 2026-04-27 20:52 | 30.97673 | 31.22565 | 36027 ft | 433 kts | 345° |
| 2026-04-27 20:53 | 31.03622 | 31.21460 | 36027 ft | 433 kts | 345° |
| 2026-04-27 20:53 | 31.09565 | 31.20355 | 36029 ft | 433 kts | 345° |
| 2026-04-27 20:54 | 31.18487 | 31.18693 | 36025 ft | 433 kts | 345° |
| 2026-04-27 20:55 | 31.24430 | 31.17584 | 36029 ft | 433 kts | 345° |
| 2026-04-27 20:55 | 31.30375 | 31.16473 | 36031 ft | 432 kts | 345° |
| 2026-04-27 20:56 | 31.36314 | 31.15361 | 36026 ft | 432 kts | 345° |
| 2026-04-27 20:56 | 31.42256 | 31.14247 | 36028 ft | 432 kts | 345° |
| 2026-04-27 20:57 | 31.48192 | 31.13133 | 36028 ft | 432 kts | 345° |
| 2026-04-27 20:57 | 31.54163 | 31.12177 | 36031 ft | 435 kts | 349° |
| 2026-04-27 20:58 | 31.60190 | 31.11569 | 36029 ft | 435 kts | 349° |
| 2026-04-27 20:58 | 31.66213 | 31.10915 | 36029 ft | 435 kts | 349° |
| 2026-04-27 20:59 | 31.72193 | 31.10260 | 36030 ft | 434 kts | 349° |
| 2026-04-27 20:59 | 31.78210 | 31.09600 | 36032 ft | 434 kts | 349° |
| 2026-04-27 21:00 | 31.84230 | 31.08938 | 36030 ft | 434 kts | 349° |
| 2026-04-27 21:00 | 31.90247 | 31.08276 | 36030 ft | 434 kts | 349° |
| 2026-04-27 21:01 | 31.96262 | 31.07613 | 36032 ft | 434 kts | 349° |
| 2026-04-27 21:01 | 32.02279 | 31.06949 | 36032 ft | 434 kts | 349° |
| 2026-04-27 21:02 | 32.08294 | 31.06289 | 36036 ft | 434 kts | 349° |
| 2026-04-27 21:02 | 32.14307 | 31.05629 | 36029 ft | 434 kts | 349° |
| 2026-04-27 21:03 | 32.20316 | 31.04968 | 36032 ft | 434 kts | 349° |
| 2026-04-27 21:03 | 32.26324 | 31.04307 | 36027 ft | 433 kts | 349° |
| 2026-04-27 21:04 | 32.32330 | 31.03645 | 36027 ft | 433 kts | 349° |
| 2026-04-27 21:04 | 32.38334 | 31.02982 | 36024 ft | 434 kts | 349° |
| 2026-04-27 21:05 | 32.44345 | 31.02317 | 36027 ft | 434 kts | 349° |
| 2026-04-27 21:05 | 32.50357 | 31.01652 | 36031 ft | 434 kts | 349° |
| 2026-04-27 21:06 | 32.56371 | 31.00985 | 36027 ft | 434 kts | 349° |
| 2026-04-27 21:06 | 32.62393 | 31.00316 | 36027 ft | 435 kts | 349° |
| 2026-04-27 21:07 | 32.68416 | 30.99647 | 36024 ft | 435 kts | 349° |
| 2026-04-27 21:07 | 32.74436 | 30.98977 | 36025 ft | 435 kts | 349° |
| 2026-04-27 21:08 | 32.80430 | 30.98309 | 36024 ft | 435 kts | 349° |
| 2026-04-27 21:08 | 32.86463 | 30.97636 | 36023 ft | 436 kts | 349° |
| 2026-04-27 21:09 | 32.92505 | 30.96961 | 36021 ft | 436 kts | 349° |
| 2026-04-27 21:09 | 32.98583 | 30.96280 | 36021 ft | 436 kts | 349° |
| 2026-04-27 21:10 | 33.04633 | 30.95603 | 36018 ft | 436 kts | 349° |
| 2026-04-27 21:10 | 33.10651 | 30.95029 | 36014 ft | 439 kts | 354° |
| 2026-04-27 21:11 | 33.16759 | 30.94848 | 36013 ft | 439 kts | 353° |
| 2026-04-27 21:11 | 33.22874 | 30.94617 | 36016 ft | 439 kts | 353° |
| 2026-04-27 21:12 | 33.28980 | 30.94380 | 36017 ft | 440 kts | 353° |
| 2026-04-27 21:12 | 33.35099 | 30.94141 | 36014 ft | 440 kts | 353° |
| 2026-04-27 21:13 | 33.41211 | 30.93903 | 36015 ft | 440 kts | 353° |
| 2026-04-27 21:13 | 33.47326 | 30.93663 | 36013 ft | 440 kts | 353° |
| 2026-04-27 21:14 | 33.53450 | 30.93423 | 36015 ft | 440 kts | 353° |
| 2026-04-27 21:14 | 33.59568 | 30.93183 | 36012 ft | 440 kts | 353° |
| 2026-04-27 21:15 | 33.65691 | 30.92943 | 36014 ft | 440 kts | 353° |
| 2026-04-27 21:15 | 33.71810 | 30.92702 | 36010 ft | 440 kts | 353° |
| 2026-04-27 21:16 | 33.77932 | 30.92461 | 36009 ft | 440 kts | 353° |
| 2026-04-27 21:16 | 33.84056 | 30.92219 | 36010 ft | 441 kts | 353° |
| 2026-04-27 21:17 | 33.90189 | 30.91977 | 36008 ft | 441 kts | 354° |
| 2026-04-27 21:17 | 33.96319 | 30.91703 | 36005 ft | 440 kts | 353° |
| 2026-04-27 21:18 | 34.02440 | 30.91362 | 36004 ft | 441 kts | 353° |
| 2026-04-27 21:18 | 34.08573 | 30.91028 | 36007 ft | 441 kts | 353° |
| 2026-04-27 21:19 | 34.14709 | 30.90693 | 36005 ft | 441 kts | 353° |
| 2026-04-27 21:19 | 34.20844 | 30.90358 | 36005 ft | 442 kts | 353° |
| 2026-04-27 21:20 | 34.30058 | 30.89894 | 36001 ft | 442 kts | 353° |
| 2026-04-27 21:20 | 34.36209 | 30.89592 | 36001 ft | 442 kts | 353° |
| 2026-04-27 21:21 | 34.42361 | 30.89288 | 36000 ft | 443 kts | 354° |
| 2026-04-27 21:21 | 34.48516 | 30.88984 | 35999 ft | 443 kts | 354° |
| 2026-04-27 21:22 | 34.54672 | 30.88679 | 35999 ft | 443 kts | 354° |
| 2026-04-27 21:22 | 34.60834 | 30.88378 | 35995 ft | 444 kts | 354° |
| 2026-04-27 21:23 | 34.67012 | 30.88179 | 35993 ft | 444 kts | 354° |
| 2026-04-27 21:23 | 34.73194 | 30.87974 | 35992 ft | 444 kts | 354° |
| 2026-04-27 21:24 | 34.79373 | 30.87767 | 35993 ft | 445 kts | 354° |
| 2026-04-27 21:24 | 34.85521 | 30.87560 | 35991 ft | 445 kts | 355° |
| 2026-04-27 21:25 | 34.91747 | 30.87351 | 35987 ft | 445 kts | 355° |
| 2026-04-27 21:25 | 34.97898 | 30.87144 | 35993 ft | 445 kts | 355° |
| 2026-04-27 21:26 | 35.04091 | 30.86935 | 35986 ft | 445 kts | 355° |
| 2026-04-27 21:26 | 35.10283 | 30.86726 | 35991 ft | 445 kts | 355° |
| 2026-04-27 21:27 | 35.16479 | 30.86516 | 35985 ft | 446 kts | 355° |
| 2026-04-27 21:27 | 35.22680 | 30.86309 | 35993 ft | 446 kts | 355° |
| 2026-04-27 21:28 | 35.28885 | 30.86102 | 35996 ft | 446 kts | 355° |
| 2026-04-27 21:28 | 35.35090 | 30.85894 | 35986 ft | 446 kts | 355° |
| 2026-04-27 21:29 | 35.41294 | 30.85686 | 35981 ft | 446 kts | 355° |
| 2026-04-27 21:29 | 35.47503 | 30.85477 | 35983 ft | 446 kts | 355° |
| 2026-04-27 21:30 | 35.53712 | 30.85268 | 35984 ft | 447 kts | 355° |
| 2026-04-27 21:30 | 35.59925 | 30.85059 | 35990 ft | 447 kts | 355° |
| 2026-04-27 21:31 | 35.66123 | 30.84699 | 35984 ft | 446 kts | 354° |
| 2026-04-27 21:31 | 35.72330 | 30.84329 | 35987 ft | 446 kts | 354° |
| 2026-04-27 21:32 | 35.78495 | 30.83964 | 35980 ft | 447 kts | 354° |
| 2026-04-27 21:32 | 35.84702 | 30.83596 | 35982 ft | 447 kts | 354° |
| 2026-04-27 21:33 | 35.90910 | 30.83228 | 35986 ft | 447 kts | 354° |
| 2026-04-27 21:33 | 35.97121 | 30.82859 | 35983 ft | 447 kts | 354° |
| 2026-04-27 21:34 | 36.02324 | 30.82549 | 35981 ft | 447 kts | 354° |
| 2026-04-27 21:34 | 36.08542 | 30.82330 | 35981 ft | 447 kts | 355° |
| 2026-04-27 21:35 | 36.14770 | 30.82119 | 35983 ft | 447 kts | 355° |
| 2026-04-27 21:35 | 36.20946 | 30.81906 | 35981 ft | 447 kts | 355° |
| 2026-04-27 21:36 | 36.27166 | 30.81691 | 35982 ft | 447 kts | 355° |
| 2026-04-27 21:36 | 36.33387 | 30.81476 | 35982 ft | 447 kts | 356° |
| 2026-04-27 21:37 | 36.39606 | 30.81260 | 35980 ft | 447 kts | 356° |
| 2026-04-27 21:37 | 36.45830 | 30.81046 | 35981 ft | 447 kts | 356° |
| 2026-04-27 21:38 | 36.52046 | 30.80832 | 35983 ft | 447 kts | 356° |
| 2026-04-27 21:38 | 36.58263 | 30.80618 | 35984 ft | 447 kts | 356° |
| 2026-04-27 21:39 | 36.64482 | 30.80404 | 35989 ft | 447 kts | 356° |
| 2026-04-27 21:39 | 36.70699 | 30.80189 | 35994 ft | 447 kts | 356° |
| 2026-04-27 21:40 | 36.76914 | 30.79974 | 35998 ft | 447 kts | 356° |
| 2026-04-27 21:40 | 36.83134 | 30.79758 | 35995 ft | 447 kts | 356° |
| 2026-04-27 21:41 | 36.89349 | 30.79542 | 35994 ft | 447 kts | 356° |
| 2026-04-27 21:41 | 36.95564 | 30.79955 | 35997 ft | 449 kts | 4° |
| 2026-04-27 21:42 | 37.01786 | 30.80815 | 35993 ft | 450 kts | 4° |
| 2026-04-27 21:42 | 37.08005 | 30.81691 | 35994 ft | 450 kts | 4° |
| 2026-04-27 21:43 | 37.14227 | 30.82570 | 36005 ft | 450 kts | 4° |
| 2026-04-27 21:43 | 37.20445 | 30.83450 | 36018 ft | 450 kts | 4° |
| 2026-04-27 21:44 | 37.26666 | 30.84331 | 36028 ft | 450 kts | 4° |
| 2026-04-27 21:44 | 37.32885 | 30.85215 | 36037 ft | 450 kts | 4° |
| 2026-04-27 21:45 | 37.39102 | 30.86099 | 36035 ft | 449 kts | 4° |
| 2026-04-27 21:45 | 37.45320 | 30.86985 | 36046 ft | 450 kts | 4° |
| 2026-04-27 21:46 | 37.51533 | 30.87871 | 36056 ft | 449 kts | 4° |
| 2026-04-27 21:46 | 37.57707 | 30.88754 | 36068 ft | 450 kts | 4° |
| 2026-04-27 21:47 | 37.63923 | 30.89644 | 36065 ft | 450 kts | 4° |
| 2026-04-27 21:47 | 37.70144 | 30.90536 | 36067 ft | 450 kts | 4° |
| 2026-04-27 21:48 | 37.76363 | 30.91430 | 36070 ft | 450 kts | 4° |
| 2026-04-27 21:48 | 37.82588 | 30.92326 | 36077 ft | 450 kts | 4° |
| 2026-04-27 21:49 | 37.88806 | 30.93222 | 36079 ft | 450 kts | 4° |
| 2026-04-27 21:49 | 37.95031 | 30.94121 | 36088 ft | 450 kts | 4° |
| 2026-04-27 21:50 | 38.01257 | 30.95021 | 36090 ft | 450 kts | 4° |
| 2026-04-27 21:50 | 38.07480 | 30.95923 | 36092 ft | 450 kts | 4° |
| 2026-04-27 21:51 | 38.13705 | 30.96827 | 36090 ft | 450 kts | 4° |
| 2026-04-27 21:51 | 38.19927 | 30.97731 | 36095 ft | 450 kts | 4° |
| 2026-04-27 21:52 | 38.26156 | 30.98639 | 36091 ft | 451 kts | 4° |
| 2026-04-27 21:52 | 38.32385 | 30.99547 | 36095 ft | 451 kts | 4° |
| 2026-04-27 21:53 | 38.38618 | 31.00458 | 36100 ft | 451 kts | 4° |
| 2026-04-27 21:53 | 38.44857 | 31.01369 | 36102 ft | 451 kts | 3° |
| 2026-04-27 21:54 | 38.47959 | 31.01355 | 36079 ft | 443 kts | 347° |
| 2026-04-27 21:54 | 38.50911 | 31.00326 | 36111 ft | 440 kts | 338° |
| 2026-04-27 21:54 | 38.56701 | 30.97733 | 36115 ft | 441 kts | 337° |
| 2026-04-27 21:55 | 38.62459 | 30.95017 | 36103 ft | 441 kts | 337° |
| 2026-04-27 21:55 | 38.68203 | 30.92259 | 36111 ft | 441 kts | 336° |
| 2026-04-27 21:56 | 38.76806 | 30.88114 | 36117 ft | 441 kts | 336° |
| 2026-04-27 21:57 | 38.82545 | 30.85342 | 36123 ft | 440 kts | 336° |
| 2026-04-27 21:57 | 38.88281 | 30.82567 | 36126 ft | 440 kts | 336° |
| 2026-04-27 21:58 | 38.93973 | 30.79809 | 36130 ft | 440 kts | 336° |
| 2026-04-27 21:58 | 38.99734 | 30.77012 | 36135 ft | 440 kts | 336° |
| 2026-04-27 21:59 | 39.05461 | 30.74227 | 36139 ft | 440 kts | 336° |
| 2026-04-27 21:59 | 39.11194 | 30.71435 | 36141 ft | 440 kts | 336° |
| 2026-04-27 22:00 | 39.16883 | 30.68658 | 36154 ft | 440 kts | 336° |
| 2026-04-27 22:00 | 39.22645 | 30.65842 | 36150 ft | 440 kts | 336° |
| 2026-04-27 22:01 | 39.28368 | 30.63039 | 36158 ft | 440 kts | 336° |
| 2026-04-27 22:01 | 39.34101 | 30.60227 | 36165 ft | 440 kts | 336° |
| 2026-04-27 22:02 | 39.39795 | 30.57428 | 36157 ft | 441 kts | 336° |
| 2026-04-27 22:02 | 39.45564 | 30.54588 | 36170 ft | 441 kts | 336° |
| 2026-04-27 22:03 | 39.51293 | 30.51764 | 36163 ft | 441 kts | 336° |
| 2026-04-27 22:03 | 39.56897 | 30.48715 | 36161 ft | 439 kts | 332° |
| 2026-04-27 22:04 | 39.62469 | 30.45443 | 36151 ft | 440 kts | 333° |
| 2026-04-27 22:04 | 39.68087 | 30.42173 | 36142 ft | 440 kts | 333° |
| 2026-04-27 22:05 | 39.73671 | 30.38920 | 36138 ft | 440 kts | 333° |
| 2026-04-27 22:05 | 39.79257 | 30.35661 | 36140 ft | 440 kts | 333° |
| 2026-04-27 22:06 | 39.84807 | 30.32416 | 36149 ft | 440 kts | 333° |
| 2026-04-27 22:06 | 39.90397 | 30.29143 | 36156 ft | 440 kts | 333° |
| 2026-04-27 22:07 | 39.96018 | 30.25845 | 36168 ft | 441 kts | 332° |
| 2026-04-27 22:07 | 40.01603 | 30.22562 | 36187 ft | 441 kts | 332° |
| 2026-04-27 22:08 | 40.07199 | 30.19267 | 36199 ft | 441 kts | 332° |
| 2026-04-27 22:08 | 40.12786 | 30.15972 | 36202 ft | 441 kts | 332° |
| 2026-04-27 22:09 | 40.18364 | 30.12676 | 36202 ft | 441 kts | 332° |
| 2026-04-27 22:09 | 40.23956 | 30.09365 | 36203 ft | 440 kts | 332° |
| 2026-04-27 22:10 | 40.29536 | 30.06056 | 36197 ft | 440 kts | 332° |
| 2026-04-27 22:10 | 40.35112 | 30.02742 | 36196 ft | 440 kts | 332° |
| 2026-04-27 22:11 | 40.40692 | 29.99421 | 36196 ft | 440 kts | 332° |
| 2026-04-27 22:11 | 40.46267 | 29.96097 | 36199 ft | 440 kts | 332° |
| 2026-04-27 22:12 | 40.51844 | 29.92765 | 36189 ft | 440 kts | 332° |
| 2026-04-27 22:12 | 40.57414 | 29.89431 | 36188 ft | 440 kts | 332° |
| 2026-04-27 22:13 | 40.62986 | 29.86090 | 36193 ft | 440 kts | 332° |
| 2026-04-27 22:13 | 40.68553 | 29.82746 | 36182 ft | 440 kts | 332° |
| 2026-04-27 22:14 | 40.74120 | 29.79395 | 36197 ft | 440 kts | 332° |
| 2026-04-27 22:14 | 40.79684 | 29.76041 | 36198 ft | 440 kts | 332° |
| 2026-04-27 22:15 | 40.85244 | 29.72682 | 36207 ft | 440 kts | 332° |
| 2026-04-27 22:15 | 40.90810 | 29.69313 | 36207 ft | 440 kts | 332° |
| 2026-04-27 22:16 | 40.96366 | 29.65945 | 36204 ft | 439 kts | 332° |
| 2026-04-27 22:16 | 41.00987 | 29.63138 | 36199 ft | 439 kts | 332° |
| 2026-04-27 22:17 | 41.06542 | 29.59759 | 36207 ft | 439 kts | 332° |
| 2026-04-27 22:17 | 41.12096 | 29.56375 | 36203 ft | 439 kts | 332° |
| 2026-04-27 22:18 | 41.17641 | 29.52991 | 36207 ft | 439 kts | 332° |
| 2026-04-27 22:18 | 41.23414 | 29.50296 | 36209 ft | 442 kts | 341° |
| 2026-04-27 22:19 | 41.29327 | 29.48038 | 36210 ft | 442 kts | 341° |
| 2026-04-27 22:19 | 41.35234 | 29.45793 | 36211 ft | 442 kts | 341° |
| 2026-04-27 22:20 | 41.41146 | 29.43543 | 36210 ft | 442 kts | 341° |
| 2026-04-27 22:20 | 41.47057 | 29.41290 | 36213 ft | 441 kts | 341° |
| 2026-04-27 22:21 | 41.52954 | 29.39038 | 36214 ft | 441 kts | 341° |
| 2026-04-27 22:21 | 41.58860 | 29.36779 | 36214 ft | 441 kts | 341° |
| 2026-04-27 22:22 | 41.64761 | 29.34516 | 36218 ft | 441 kts | 341° |
| 2026-04-27 22:22 | 41.70654 | 29.32253 | 36219 ft | 441 kts | 341° |
| 2026-04-27 22:23 | 41.76546 | 29.29985 | 36219 ft | 440 kts | 341° |
| 2026-04-27 22:23 | 41.82435 | 29.27715 | 36220 ft | 440 kts | 341° |
| 2026-04-27 22:24 | 41.88328 | 29.25438 | 36226 ft | 441 kts | 341° |
| 2026-04-27 22:24 | 41.94219 | 29.23158 | 36225 ft | 440 kts | 341° |
| 2026-04-27 22:25 | 42.00100 | 29.20878 | 36226 ft | 440 kts | 341° |
| 2026-04-27 22:25 | 42.05983 | 29.18592 | 36230 ft | 440 kts | 341° |
| 2026-04-27 22:26 | 42.11865 | 29.16303 | 36230 ft | 440 kts | 341° |
| 2026-04-27 22:26 | 42.17482 | 29.13296 | 36217 ft | 431 kts | 321° |
| 2026-04-27 22:27 | 42.22048 | 29.08063 | 36220 ft | 431 kts | 316° |
| 2026-04-27 22:27 | 42.26527 | 29.02680 | 36231 ft | 431 kts | 316° |
| 2026-04-27 22:28 | 42.30964 | 28.97251 | 36231 ft | 431 kts | 316° |
| 2026-04-27 22:28 | 42.35396 | 28.91805 | 36230 ft | 430 kts | 316° |
| 2026-04-27 22:29 | 42.39820 | 28.86357 | 36231 ft | 430 kts | 315° |
| 2026-04-27 22:29 | 42.44209 | 28.80941 | 36231 ft | 429 kts | 315° |
| 2026-04-27 22:30 | 42.48614 | 28.75495 | 36231 ft | 429 kts | 315° |
| 2026-04-27 22:30 | 42.53011 | 28.70046 | 36234 ft | 428 kts | 315° |
| 2026-04-27 22:31 | 42.57401 | 28.64597 | 36233 ft | 427 kts | 315° |
| 2026-04-27 22:31 | 42.61785 | 28.59144 | 36232 ft | 427 kts | 315° |
| 2026-04-27 22:32 | 42.66155 | 28.53697 | 36234 ft | 427 kts | 315° |
| 2026-04-27 22:32 | 42.70522 | 28.48243 | 36230 ft | 426 kts | 315° |
| 2026-04-27 22:33 | 42.74886 | 28.42783 | 36232 ft | 426 kts | 315° |
| 2026-04-27 22:33 | 42.79241 | 28.37321 | 36234 ft | 426 kts | 315° |
| 2026-04-27 22:34 | 42.83595 | 28.31851 | 36235 ft | 425 kts | 315° |
| 2026-04-27 22:34 | 42.87941 | 28.26381 | 36236 ft | 425 kts | 315° |
| 2026-04-27 22:35 | 42.92279 | 28.20911 | 36235 ft | 425 kts | 315° |
| 2026-04-27 22:35 | 42.96610 | 28.15436 | 36232 ft | 425 kts | 315° |
| 2026-04-27 22:36 | 43.00943 | 28.09949 | 36228 ft | 424 kts | 315° |
| 2026-04-27 22:36 | 43.05268 | 28.04461 | 36224 ft | 424 kts | 315° |
| 2026-04-27 22:37 | 43.09589 | 27.98969 | 36220 ft | 424 kts | 315° |
| 2026-04-27 22:37 | 43.13876 | 27.93507 | 36216 ft | 424 kts | 315° |
| 2026-04-27 22:38 | 43.18190 | 27.88001 | 36214 ft | 424 kts | 315° |
| 2026-04-27 22:38 | 43.22498 | 27.82500 | 36209 ft | 423 kts | 316° |
| 2026-04-27 22:39 | 43.27029 | 27.77323 | 36214 ft | 424 kts | 317° |
| 2026-04-27 22:39 | 43.31539 | 27.72124 | 36211 ft | 423 kts | 317° |
| 2026-04-27 22:40 | 43.36043 | 27.66911 | 36211 ft | 423 kts | 317° |
| 2026-04-27 22:40 | 43.40543 | 27.61690 | 36208 ft | 423 kts | 317° |
| 2026-04-27 22:41 | 43.45027 | 27.56476 | 36204 ft | 422 kts | 317° |
| 2026-04-27 22:41 | 43.49514 | 27.51250 | 36199 ft | 422 kts | 317° |
| 2026-04-27 22:42 | 43.53996 | 27.46018 | 36196 ft | 422 kts | 317° |
| 2026-04-27 22:42 | 43.58478 | 27.40776 | 36192 ft | 422 kts | 317° |
| 2026-04-27 22:43 | 43.62957 | 27.35527 | 36190 ft | 423 kts | 317° |
| 2026-04-27 22:43 | 43.67406 | 27.30312 | 36184 ft | 423 kts | 317° |
| 2026-04-27 22:44 | 43.71951 | 27.25056 | 36185 ft | 423 kts | 317° |
| 2026-04-27 22:44 | 43.76427 | 27.19863 | 36179 ft | 423 kts | 317° |
| 2026-04-27 22:45 | 43.80968 | 27.14584 | 36177 ft | 423 kts | 317° |
| 2026-04-27 22:45 | 43.85437 | 27.09377 | 36173 ft | 423 kts | 317° |
| 2026-04-27 22:46 | 43.89930 | 27.04132 | 36167 ft | 422 kts | 317° |
| 2026-04-27 22:46 | 43.94427 | 26.98871 | 36173 ft | 423 kts | 317° |
| 2026-04-27 22:47 | 43.98942 | 26.93579 | 36165 ft | 422 kts | 317° |
| 2026-04-27 22:47 | 44.03422 | 26.88316 | 36159 ft | 422 kts | 317° |
| 2026-04-27 22:48 | 44.07878 | 26.83053 | 36160 ft | 421 kts | 316° |
| 2026-04-27 22:48 | 44.12243 | 26.77626 | 36161 ft | 421 kts | 316° |
| 2026-04-27 22:49 | 44.16610 | 26.72207 | 36159 ft | 420 kts | 316° |
| 2026-04-27 22:49 | 44.20971 | 26.66790 | 36160 ft | 420 kts | 316° |
| 2026-04-27 22:50 | 44.25318 | 26.61378 | 36156 ft | 419 kts | 315° |
| 2026-04-27 22:50 | 44.29662 | 26.55959 | 36153 ft | 419 kts | 315° |
| 2026-04-27 22:51 | 44.34004 | 26.50530 | 36156 ft | 419 kts | 315° |
| 2026-04-27 22:51 | 44.38340 | 26.45099 | 36155 ft | 418 kts | 315° |
| 2026-04-27 22:52 | 44.42667 | 26.39667 | 36154 ft | 418 kts | 315° |
| 2026-04-27 22:52 | 44.46990 | 26.34229 | 36157 ft | 418 kts | 315° |
| 2026-04-27 22:53 | 44.51313 | 26.28780 | 36157 ft | 418 kts | 315° |
| 2026-04-27 22:53 | 44.55627 | 26.23331 | 36158 ft | 417 kts | 315° |
| 2026-04-27 22:54 | 44.59938 | 26.17874 | 36158 ft | 417 kts | 315° |
| 2026-04-27 22:54 | 44.64245 | 26.12412 | 36160 ft | 417 kts | 315° |
| 2026-04-27 22:55 | 44.68547 | 26.06943 | 36156 ft | 417 kts | 315° |
| 2026-04-27 22:55 | 44.72848 | 26.01465 | 36159 ft | 417 kts | 315° |
| 2026-04-27 22:56 | 44.77139 | 25.95988 | 36156 ft | 416 kts | 315° |
| 2026-04-27 22:56 | 44.81420 | 25.90513 | 36161 ft | 416 kts | 315° |
| 2026-04-27 22:57 | 44.85701 | 25.85025 | 36164 ft | 416 kts | 315° |
| 2026-04-27 22:57 | 44.89971 | 25.79541 | 36171 ft | 415 kts | 315° |
| 2026-04-27 22:58 | 44.94208 | 25.74087 | 36176 ft | 415 kts | 315° |
| 2026-04-27 22:58 | 44.98494 | 25.68558 | 36179 ft | 414 kts | 314° |
| 2026-04-27 22:59 | 45.02742 | 25.63068 | 36188 ft | 414 kts | 314° |
| 2026-04-27 22:59 | 45.06950 | 25.57617 | 36186 ft | 413 kts | 314° |
| 2026-04-27 23:00 | 45.13291 | 25.49382 | 36193 ft | 412 kts | 314° |
| 2026-04-27 23:00 | 45.17507 | 25.43892 | 36191 ft | 412 kts | 314° |
| 2026-04-27 23:01 | 45.21729 | 25.38383 | 36194 ft | 412 kts | 314° |
| 2026-04-27 23:01 | 45.25945 | 25.32871 | 36196 ft | 412 kts | 314° |
| 2026-04-27 23:02 | 45.30155 | 25.27354 | 36206 ft | 412 kts | 314° |
| 2026-04-27 23:02 | 45.34358 | 25.21835 | 36210 ft | 411 kts | 314° |
| 2026-04-27 23:03 | 45.38548 | 25.16320 | 36186 ft | 410 kts | 314° |
| 2026-04-27 23:03 | 45.42046 | 25.11709 | 36203 ft | 409 kts | 314° |
| 2026-04-27 23:04 | 45.46218 | 25.06199 | 36217 ft | 408 kts | 314° |
| 2026-04-27 23:04 | 45.50375 | 25.00695 | 36209 ft | 407 kts | 314° |
| 2026-04-27 23:05 | 45.54512 | 24.95207 | 36201 ft | 405 kts | 314° |
| 2026-04-27 23:05 | 45.58632 | 24.89729 | 36213 ft | 404 kts | 314° |
| 2026-04-27 23:06 | 45.62738 | 24.84258 | 36214 ft | 403 kts | 314° |
| 2026-04-27 23:06 | 45.66804 | 24.78830 | 36211 ft | 403 kts | 314° |
| 2026-04-27 23:07 | 45.70892 | 24.73361 | 36202 ft | 402 kts | 314° |
| 2026-04-27 23:07 | 45.74971 | 24.67892 | 36197 ft | 401 kts | 314° |
| 2026-04-27 23:08 | 45.79045 | 24.62419 | 36197 ft | 402 kts | 314° |
| 2026-04-27 23:08 | 45.83121 | 24.56932 | 36198 ft | 402 kts | 314° |
| 2026-04-27 23:09 | 45.87197 | 24.51433 | 36195 ft | 402 kts | 314° |
| 2026-04-27 23:09 | 45.91271 | 24.45925 | 36194 ft | 403 kts | 313° |
| 2026-04-27 23:10 | 45.95348 | 24.40402 | 36194 ft | 403 kts | 313° |
| 2026-04-27 23:10 | 45.99423 | 24.34869 | 36197 ft | 403 kts | 313° |
| 2026-04-27 23:11 | 46.03500 | 24.29322 | 36197 ft | 404 kts | 313° |
| 2026-04-27 23:11 | 46.07578 | 24.23760 | 36202 ft | 404 kts | 313° |
| 2026-04-27 23:12 | 46.11657 | 24.18187 | 36203 ft | 404 kts | 313° |
| 2026-04-27 23:12 | 46.15740 | 24.12595 | 36209 ft | 405 kts | 313° |
| 2026-04-27 23:13 | 46.19823 | 24.06993 | 36209 ft | 405 kts | 313° |
| 2026-04-27 23:13 | 46.23906 | 24.01377 | 36203 ft | 405 kts | 313° |
| 2026-04-27 23:14 | 46.27987 | 23.95753 | 36212 ft | 406 kts | 313° |
| 2026-04-27 23:14 | 46.32068 | 23.90115 | 36212 ft | 406 kts | 313° |
| 2026-04-27 23:15 | 46.36149 | 23.84466 | 36218 ft | 406 kts | 313° |
| 2026-04-27 23:15 | 46.40227 | 23.78808 | 36220 ft | 406 kts | 313° |
| 2026-04-27 23:16 | 46.44272 | 23.73185 | 36229 ft | 406 kts | 313° |
| 2026-04-27 23:16 | 46.48339 | 23.67518 | 36214 ft | 405 kts | 313° |
| 2026-04-27 23:17 | 46.52402 | 23.61845 | 36215 ft | 405 kts | 313° |
| 2026-04-27 23:17 | 46.56461 | 23.56165 | 36214 ft | 405 kts | 313° |
| 2026-04-27 23:18 | 46.60508 | 23.50488 | 36211 ft | 404 kts | 313° |
| 2026-04-27 23:18 | 46.64550 | 23.44807 | 36207 ft | 404 kts | 313° |
| 2026-04-27 23:19 | 46.68585 | 23.39123 | 36215 ft | 403 kts | 313° |
| 2026-04-27 23:19 | 46.72613 | 23.33436 | 36221 ft | 403 kts | 313° |
| 2026-04-27 23:20 | 46.76634 | 23.27748 | 36223 ft | 403 kts | 313° |
| 2026-04-27 23:20 | 46.80652 | 23.22050 | 36225 ft | 402 kts | 313° |
| 2026-04-27 23:21 | 46.84666 | 23.16345 | 36229 ft | 402 kts | 313° |
| 2026-04-27 23:21 | 46.88674 | 23.10637 | 36231 ft | 402 kts | 313° |
| 2026-04-27 23:22 | 46.92676 | 23.04925 | 36230 ft | 402 kts | 313° |
| 2026-04-27 23:22 | 46.96679 | 22.99198 | 36223 ft | 402 kts | 313° |
| 2026-04-27 23:23 | 47.00676 | 22.93468 | 36224 ft | 402 kts | 313° |
| 2026-04-27 23:23 | 47.04667 | 22.87734 | 36217 ft | 402 kts | 313° |
| 2026-04-27 23:24 | 47.08657 | 22.81988 | 36216 ft | 402 kts | 313° |
| 2026-04-27 23:24 | 47.12643 | 22.76235 | 36213 ft | 402 kts | 313° |
| 2026-04-27 23:25 | 47.16627 | 22.70473 | 36208 ft | 402 kts | 313° |
| 2026-04-27 23:25 | 47.20602 | 22.64710 | 36205 ft | 402 kts | 313° |
| 2026-04-27 23:26 | 47.24580 | 22.58932 | 36198 ft | 402 kts | 313° |
| 2026-04-27 23:26 | 47.28552 | 22.53152 | 36193 ft | 402 kts | 313° |
| 2026-04-27 23:27 | 47.32497 | 22.47399 | 36189 ft | 402 kts | 313° |
| 2026-04-27 23:27 | 47.36465 | 22.41599 | 36186 ft | 402 kts | 313° |
| 2026-04-27 23:28 | 47.40432 | 22.35788 | 36188 ft | 402 kts | 313° |
| 2026-04-27 23:28 | 47.44395 | 22.29970 | 36179 ft | 402 kts | 313° |
| 2026-04-27 23:29 | 47.48353 | 22.24147 | 36177 ft | 402 kts | 313° |
| 2026-04-27 23:29 | 47.52309 | 22.18313 | 36174 ft | 401 kts | 313° |
| 2026-04-27 23:30 | 47.56263 | 22.12471 | 36174 ft | 401 kts | 313° |
| 2026-04-27 23:30 | 47.60281 | 22.06730 | 36169 ft | 402 kts | 314° |
| 2026-04-27 23:31 | 47.64313 | 22.00998 | 36174 ft | 401 kts | 314° |
| 2026-04-27 23:31 | 47.68342 | 21.95257 | 36162 ft | 401 kts | 314° |
| 2026-04-27 23:32 | 47.72364 | 21.89513 | 36171 ft | 401 kts | 314° |
| 2026-04-27 23:32 | 47.76379 | 21.83764 | 36174 ft | 401 kts | 314° |
| 2026-04-27 23:33 | 47.80398 | 21.78000 | 36178 ft | 401 kts | 314° |
| 2026-04-27 23:33 | 47.84407 | 21.72235 | 36181 ft | 401 kts | 314° |
| 2026-04-27 23:34 | 47.88414 | 21.66460 | 36190 ft | 401 kts | 314° |
| 2026-04-27 23:34 | 47.92412 | 21.60685 | 36215 ft | 399 kts | 315° |
| 2026-04-27 23:35 | 47.96388 | 21.54928 | 36194 ft | 398 kts | 315° |
| 2026-04-27 23:35 | 48.00365 | 21.49159 | 36176 ft | 399 kts | 315° |
| 2026-04-27 23:36 | 48.04339 | 21.43379 | 36178 ft | 399 kts | 315° |
| 2026-04-27 23:36 | 48.08280 | 21.37634 | 36170 ft | 399 kts | 314° |
| 2026-04-27 23:37 | 48.12249 | 21.31837 | 36168 ft | 399 kts | 314° |
| 2026-04-27 23:37 | 48.16213 | 21.26032 | 36166 ft | 399 kts | 314° |
| 2026-04-27 23:38 | 48.20176 | 21.20217 | 36161 ft | 399 kts | 314° |
| 2026-04-27 23:38 | 48.24134 | 21.14393 | 36169 ft | 399 kts | 314° |
| 2026-04-27 23:39 | 48.28092 | 21.08559 | 36171 ft | 399 kts | 314° |
| 2026-04-27 23:39 | 48.32046 | 21.02715 | 36174 ft | 399 kts | 314° |
| 2026-04-27 23:40 | 48.36003 | 20.96855 | 36172 ft | 399 kts | 314° |
| 2026-04-27 23:40 | 48.39951 | 20.90994 | 36173 ft | 399 kts | 314° |
| 2026-04-27 23:41 | 48.43902 | 20.85115 | 36179 ft | 399 kts | 314° |
| 2026-04-27 23:41 | 48.47850 | 20.79227 | 36178 ft | 399 kts | 314° |
| 2026-04-27 23:42 | 48.51797 | 20.73326 | 36185 ft | 400 kts | 314° |
| 2026-04-27 23:42 | 48.55739 | 20.67421 | 36184 ft | 400 kts | 314° |
| 2026-04-27 23:43 | 48.59683 | 20.61497 | 36182 ft | 399 kts | 314° |
| 2026-04-27 23:43 | 48.63618 | 20.55574 | 36192 ft | 400 kts | 313° |
| 2026-04-27 23:44 | 48.67553 | 20.49636 | 36186 ft | 400 kts | 313° |
| 2026-04-27 23:44 | 48.71487 | 20.43686 | 36199 ft | 400 kts | 313° |
| 2026-04-27 23:45 | 48.75418 | 20.37726 | 36201 ft | 400 kts | 313° |
| 2026-04-27 23:45 | 48.79351 | 20.31751 | 36201 ft | 400 kts | 313° |
| 2026-04-27 23:46 | 48.83284 | 20.25760 | 36194 ft | 401 kts | 313° |
| 2026-04-27 23:46 | 48.87189 | 20.19798 | 36190 ft | 401 kts | 313° |
| 2026-04-27 23:47 | 48.91147 | 20.13742 | 36197 ft | 401 kts | 313° |
| 2026-04-27 23:47 | 48.95047 | 20.07760 | 36186 ft | 401 kts | 313° |
| 2026-04-27 23:48 | 48.98975 | 20.01720 | 36196 ft | 401 kts | 313° |
| 2026-04-27 23:48 | 49.02922 | 19.95637 | 36188 ft | 401 kts | 313° |
| 2026-04-27 23:49 | 49.04879 | 19.92616 | 36069 ft | 397 kts | 313° |
| 2026-04-27 23:49 | 49.06161 | 19.90634 | 35650 ft | 397 kts | 313° |
| 2026-04-27 23:49 | 49.08098 | 19.87639 | 35050 ft | 395 kts | 313° |
| 2026-04-27 23:49 | 49.10021 | 19.84664 | 34511 ft | 392 kts | 313° |
| 2026-04-27 23:50 | 49.11928 | 19.81709 | 33952 ft | 389 kts | 313° |
| 2026-04-27 23:50 | 49.14428 | 19.77829 | 33207 ft | 384 kts | 313° |
| 2026-04-27 23:50 | 49.15688 | 19.75873 | 32856 ft | 381 kts | 313° |
| 2026-04-27 23:50 | 49.17537 | 19.72997 | 32374 ft | 377 kts | 313° |
| 2026-04-27 23:51 | 49.19366 | 19.70150 | 31859 ft | 374 kts | 313° |
| 2026-04-27 23:51 | 49.21206 | 19.67366 | 31352 ft | 372 kts | 317° |
| 2026-04-27 23:51 | 49.23425 | 19.65284 | 30766 ft | 379 kts | 334° |
| 2026-04-27 23:51 | 49.25997 | 19.64358 | 30308 ft | 385 kts | 350° |
| 2026-04-27 23:52 | 49.28684 | 19.64283 | 29783 ft | 385 kts | 353° |
| 2026-04-27 23:52 | 49.31350 | 19.64289 | 29272 ft | 382 kts | 354° |
| 2026-04-27 23:52 | 49.33999 | 19.64335 | 28789 ft | 379 kts | 355° |
| 2026-04-27 23:52 | 49.36623 | 19.64401 | 28315 ft | 376 kts | 355° |
| 2026-04-27 23:53 | 49.39228 | 19.64475 | 27834 ft | 373 kts | 355° |
| 2026-04-27 23:53 | 49.41810 | 19.64557 | 27367 ft | 371 kts | 356° |
| 2026-04-27 23:53 | 49.44373 | 19.65219 | 26860 ft | 381 kts | 13° |
| 2026-04-27 23:53 | 49.46727 | 19.67154 | 26468 ft | 389 kts | 31° |
| 2026-04-27 23:54 | 49.48707 | 19.70032 | 26078 ft | 392 kts | 39° |
| 2026-04-27 23:54 | 49.50600 | 19.73026 | 25649 ft | 390 kts | 40° |
| 2026-04-27 23:54 | 49.52480 | 19.76038 | 25214 ft | 389 kts | 40° |
| 2026-04-27 23:54 | 49.54340 | 19.79049 | 24794 ft | 387 kts | 41° |
| 2026-04-27 23:55 | 49.56187 | 19.82055 | 24376 ft | 386 kts | 41° |
| 2026-04-27 23:55 | 49.58027 | 19.85057 | 23959 ft | 385 kts | 41° |
| 2026-04-27 23:55 | 49.59860 | 19.88054 | 23500 ft | 383 kts | 41° |
| 2026-04-27 23:55 | 49.61683 | 19.91037 | 23055 ft | 381 kts | 41° |
| 2026-04-27 23:56 | 49.63495 | 19.94007 | 22645 ft | 378 kts | 41° |
| 2026-04-27 23:56 | 49.65286 | 19.96946 | 22253 ft | 374 kts | 41° |
| 2026-04-27 23:56 | 49.67060 | 19.99860 | 21880 ft | 371 kts | 41° |
| 2026-04-27 23:56 | 49.68821 | 20.02755 | 21479 ft | 368 kts | 41° |
| 2026-04-27 23:57 | 49.70566 | 20.05627 | 21114 ft | 365 kts | 41° |
| 2026-04-27 23:57 | 49.72303 | 20.08489 | 20715 ft | 364 kts | 41° |
| 2026-04-27 23:57 | 49.74029 | 20.11337 | 20357 ft | 362 kts | 41° |
| 2026-04-27 23:57 | 49.75770 | 20.14117 | 19959 ft | 357 kts | 35° |
| 2026-04-27 23:58 | 49.77848 | 20.16050 | 19563 ft | 342 kts | 14° |
| 2026-04-27 23:58 | 49.80124 | 20.16748 | 19234 ft | 329 kts | 356° |
| 2026-04-27 23:58 | 49.82392 | 20.16480 | 18889 ft | 327 kts | 348° |
| 2026-04-27 23:58 | 49.84636 | 20.15960 | 18546 ft | 325 kts | 346° |
| 2026-04-27 23:59 | 49.86856 | 20.15340 | 18160 ft | 323 kts | 345° |
| 2026-04-27 23:59 | 49.89055 | 20.14661 | 17791 ft | 321 kts | 345° |
| 2026-04-27 23:59 | 49.91234 | 20.13953 | 17443 ft | 319 kts | 344° |
| 2026-04-27 23:59 | 49.93375 | 20.13167 | 17081 ft | 313 kts | 336° |
| 2026-04-28 00:00 | 49.95203 | 20.11472 | 16757 ft | 304 kts | 317° |
| 2026-04-28 00:00 | 49.96754 | 20.09273 | 16467 ft | 301 kts | 316° |
| 2026-04-28 00:00 | 49.98292 | 20.07039 | 16148 ft | 304 kts | 315° |
| 2026-04-28 00:00 | 49.99820 | 20.04771 | 15834 ft | 304 kts | 315° |
| 2026-04-28 00:01 | 50.01333 | 20.02495 | 15521 ft | 302 kts | 315° |
| 2026-04-28 00:01 | 50.02836 | 20.00214 | 15201 ft | 301 kts | 315° |
| 2026-04-28 00:01 | 50.04327 | 19.97941 | 14892 ft | 300 kts | 315° |
| 2026-04-28 00:01 | 50.05812 | 19.95668 | 14576 ft | 298 kts | 315° |
| 2026-04-28 00:02 | 50.07282 | 19.93412 | 14256 ft | 296 kts | 315° |
| 2026-04-28 00:02 | 50.08747 | 19.91162 | 13861 ft | 297 kts | 315° |
| 2026-04-28 00:02 | 50.10213 | 19.88906 | 13440 ft | 296 kts | 315° |
| 2026-04-28 00:02 | 50.11670 | 19.86663 | 13079 ft | 293 kts | 315° |
| 2026-04-28 00:03 | 50.13100 | 19.84460 | 12896 ft | 285 kts | 315° |
| 2026-04-28 00:03 | 50.14468 | 19.82350 | 12741 ft | 276 kts | 315° |
| 2026-04-28 00:03 | 50.15818 | 19.80265 | 12433 ft | 272 kts | 315° |
| 2026-04-28 00:03 | 50.17179 | 19.78212 | 12052 ft | 271 kts | 317° |
| 2026-04-28 00:04 | 50.18553 | 19.76227 | 11554 ft | 269 kts | 317° |
| 2026-04-28 00:04 | 50.21298 | 19.72242 | 10445 ft | 268 kts | 317° |
| 2026-04-28 00:04 | 50.22640 | 19.70288 | 10174 ft | 265 kts | 317° |
| 2026-04-28 00:05 | 50.24008 | 19.68293 | 9781 ft | 265 kts | 317° |
| 2026-04-28 00:05 | 50.25336 | 19.66355 | 9430 ft | 264 kts | 317° |
| 2026-04-28 00:05 | 50.26679 | 19.64394 | 9068 ft | 264 kts | 317° |
| 2026-04-28 00:05 | 50.28017 | 19.62438 | 8709 ft | 263 kts | 317° |
| 2026-04-28 00:06 | 50.29375 | 19.60531 | 8340 ft | 262 kts | 325° |
| 2026-04-28 00:06 | 50.31057 | 19.59384 | 8006 ft | 261 kts | 342° |
| 2026-04-28 00:06 | 50.32764 | 19.58520 | 7640 ft | 261 kts | 341° |
| 2026-04-28 00:06 | 50.34487 | 19.57653 | 7318 ft | 260 kts | 342° |
| 2026-04-28 00:07 | 50.36210 | 19.56796 | 7000 ft | 259 kts | 342° |
| 2026-04-28 00:07 | 50.37925 | 19.55948 | 6682 ft | 258 kts | 342° |
| 2026-04-28 00:07 | 50.39633 | 19.55106 | 6354 ft | 257 kts | 342° |
| 2026-04-28 00:07 | 50.41338 | 19.54267 | 6018 ft | 256 kts | 343° |
| 2026-04-28 00:08 | 50.43044 | 19.53426 | 5840 ft | 249 kts | 343° |
| 2026-04-28 00:08 | 50.44641 | 19.52640 | 5744 ft | 239 kts | 343° |
| 2026-04-28 00:08 | 50.46145 | 19.51680 | 5625 ft | 230 kts | 324° |
| 2026-04-28 00:08 | 50.47149 | 19.49810 | 5443 ft | 226 kts | 296° |
| 2026-04-28 00:09 | 50.47509 | 19.47398 | 5084 ft | 231 kts | 275° |
| 2026-04-28 00:09 | 50.47529 | 19.44873 | 4782 ft | 231 kts | 272° |
| 2026-04-28 00:09 | 50.47526 | 19.42407 | 4681 ft | 221 kts | 272° |
| 2026-04-28 00:09 | 50.47528 | 19.40053 | 4586 ft | 210 kts | 272° |
| 2026-04-28 00:10 | 50.47532 | 19.37815 | 4485 ft | 201 kts | 272° |
| 2026-04-28 00:10 | 50.47536 | 19.35636 | 4258 ft | 200 kts | 272° |
| 2026-04-28 00:10 | 50.47541 | 19.33443 | 4003 ft | 201 kts | 272° |
| 2026-04-28 00:10 | 50.47546 | 19.31254 | 3744 ft | 201 kts | 272° |
| 2026-04-28 00:11 | 50.47551 | 19.29069 | 3480 ft | 200 kts | 271° |
| 2026-04-28 00:11 | 50.47556 | 19.26891 | 3215 ft | 199 kts | 271° |
| 2026-04-28 00:11 | 50.47561 | 19.24731 | 2982 ft | 195 kts | 271° |
| 2026-04-28 00:11 | 50.47565 | 19.22652 | 2717 ft | 182 kts | 271° |
| 2026-04-28 00:12 | 50.47570 | 19.20761 | 2454 ft | 165 kts | 270° |
| 2026-04-28 00:12 | 50.47574 | 19.19050 | 2271 ft | 152 kts | 270° |
| 2026-04-28 00:12 | 50.47578 | 19.17427 | 2031 ft | 147 kts | 270° |
| 2026-04-28 00:12 | 50.47582 | 19.15828 | 1800 ft | 146 kts | 270° |
| 2026-04-28 00:13 | 50.47586 | 19.14233 | 1587 ft | 146 kts | 270° |
| 2026-04-28 00:13 | 50.47586 | 19.12643 | 1376 ft | 146 kts | 270° |
| 2026-04-28 00:13 | 50.47593 | 19.11055 | 1174 ft | 144 kts | 271° |
| 2026-04-28 00:13 | 50.47596 | 19.09503 | 1010 ft | 138 kts | 271° |
| 2026-04-28 00:14 | 50.47598 | 19.08166 | 1000 ft | 103 kts | 270° |
| 2026-04-28 00:14 | 50.47600 | 19.07338 | 1004 ft | 52 kts | 266° |
| 2026-04-28 00:14 | 50.47537 | 19.06986 | 1001 ft | 20 kts | 242° |
| 2026-04-28 00:14 | 50.47455 | 19.06865 | 1006 ft | 18 kts | 169° |
| 2026-04-28 00:15 | 50.47427 | 19.07033 | 1001 ft | 20 kts | 90° |
| 2026-04-28 00:15 | 50.47426 | 19.07266 | 1001 ft | 23 kts | 90° |
| 2026-04-28 00:15 | 50.47426 | 19.07521 | 1001 ft | 24 kts | 90° |
| 2026-04-28 00:15 | 50.47425 | 19.07794 | 1004 ft | 26 kts | 90° |
| 2026-04-28 00:16 | 50.47424 | 19.08085 | 1004 ft | 27 kts | 90° |
| 2026-04-28 00:16 | 50.47424 | 19.08310 | 1005 ft | 10 kts | 90° |
| 2026-04-28 00:16 | 50.47424 | 19.08423 | 1005 ft | 9 kts | 90° |
| 2026-04-28 00:16 | 50.47422 | 19.08536 | 1005 ft | 11 kts | 101° |
| 2026-04-28 00:17 | 50.47356 | 19.08585 | 1006 ft | 12 kts | 179° |
| 2026-04-28 00:17 | 50.47275 | 19.08584 | 1004 ft | 9 kts | 183° |
| 2026-04-28 00:17 | 50.47233 | 19.08517 | 1006 ft | 10 kts | 266° |
| 2026-04-28 00:17 | 50.47213 | 19.08467 | 1007 ft | 3 kts | 181° |
| 2026-04-28 00:18 | 50.47183 | 19.08472 | 1004 ft | 6 kts | 178° |
| 2026-04-28 00:18 | 50.47162 | 19.08471 | 1001 ft | 2 kts | 180° |
| 2026-04-28 00:18 | 50.47149 | 19.08471 | 1001 ft | 1 kts | 180° |